Lonetree, Colorado
Current Conditions -  °F | °C
As of 8:53 PM on Friday 28 Nov 2014 (Local Time) from KAPA Reporting Station
Broken Clouds Broken Clouds  
Wind Chill: 49°   Ceiling: 22000
Heat Index: 49°   Visibility: 10mi
Dew Point: 12°   Wind: 3mph
Humidity: 23%   Direction: NA
Pressure: 29.83"   Gusts: NA
Location:  39.5234°N, 104.912°W
Report Text: KAPA 290353Z VRB03KT 10SM FEW140 BKN220 09/M11 A2983 RMK AO2 SLP076 T00941111
Loading
Personal Weather Stations






























Interactive Weather Map New forecast layout! Learn more

10-Day Weather Forecast

Advertisements
Track Severe Weather on mobile